sensor_id;sensor_type;location;lat;lon;timestamp;P1;durP1;ratioP1;P2;durP2;ratioP2
2434;SDS011;1228;51.022;6.764;2023-12-20T00:00:41;31.30;;;20.03;;
2434;SDS011;1228;51.022;6.764;2023-12-20T00:03:06;31.83;;;19.03;;
2434;SDS011;1228;51.022;6.764;2023-12-20T00:05:32;28.63;;;19.80;;
2434;SDS011;1228;51.022;6.764;2023-12-20T00:07:58;25.87;;;17.07;;
2434;SDS011;1228;51.022;6.764;2023-12-20T00:10:24;27.07;;;16.97;;
2434;SDS011;1228;51.022;6.764;2023-12-20T00:12:49;26.20;;;16.33;;
2434;SDS011;1228;51.022;6.764;2023-12-20T00:15:15;20.87;;;14.17;;
2434;SDS011;1228;51.022;6.764;2023-12-20T00:17:40;14.27;;;10.30;;
2434;SDS011;1228;51.022;6.764;2023-12-20T00:20:06;11.47;;;9.23;;
2434;SDS011;1228;51.022;6.764;2023-12-20T00:22:32;13.90;;;10.17;;
2434;SDS011;1228;51.022;6.764;2023-12-20T00:24:58;12.20;;;10.50;;
2434;SDS011;1228;51.022;6.764;2023-12-20T00:27:23;15.63;;;9.73;;
2434;SDS011;1228;51.022;6.764;2023-12-20T00:29:49;12.30;;;10.00;;
2434;SDS011;1228;51.022;6.764;2023-12-20T00:32:15;10.97;;;9.03;;
2434;SDS011;1228;51.022;6.764;2023-12-20T00:34:41;11.83;;;8.87;;
2434;SDS011;1228;51.022;6.764;2023-12-20T00:37:08;14.73;;;9.90;;
2434;SDS011;1228;51.022;6.764;2023-12-20T00:39:33;11.87;;;9.27;;
2434;SDS011;1228;51.022;6.764;2023-12-20T00:41:59;13.43;;;10.40;;
2434;SDS011;1228;51.022;6.764;2023-12-20T00:44:25;12.87;;;9.67;;
2434;SDS011;1228;51.022;6.764;2023-12-20T00:46:51;15.00;;;9.53;;
2434;SDS011;1228;51.022;6.764;2023-12-20T00:49:16;17.43;;;10.60;;
2434;SDS011;1228;51.022;6.764;2023-12-20T00:51:42;16.43;;;11.10;;
2434;SDS011;1228;51.022;6.764;2023-12-20T00:54:08;16.03;;;12.03;;
2434;SDS011;1228;51.022;6.764;2023-12-20T00:56:34;15.07;;;11.47;;
2434;SDS011;1228;51.022;6.764;2023-12-20T00:59:00;16.70;;;11.97;;
2434;SDS011;1228;51.022;6.764;2023-12-20T01:01:25;22.80;;;13.43;;
2434;SDS011;1228;51.022;6.764;2023-12-20T01:03:51;22.80;;;13.17;;
2434;SDS011;1228;51.022;6.764;2023-12-20T01:06:17;23.90;;;13.20;;
2434;SDS011;1228;51.022;6.764;2023-12-20T01:08:43;29.07;;;14.60;;
2434;SDS011;1228;51.022;6.764;2023-12-20T01:11:09;25.53;;;13.90;;
2434;SDS011;1228;51.022;6.764;2023-12-20T01:13:34;28.37;;;13.97;;
2434;SDS011;1228;51.022;6.764;2023-12-20T01:16:00;23.27;;;14.37;;
2434;SDS011;1228;51.022;6.764;2023-12-20T01:18:26;32.90;;;15.83;;
2434;SDS011;1228;51.022;6.764;2023-12-20T01:20:51;31.17;;;17.13;;
2434;SDS011;1228;51.022;6.764;2023-12-20T01:23:17;35.03;;;19.23;;
2434;SDS011;1228;51.022;6.764;2023-12-20T01:25:43;36.90;;;20.37;;
2434;SDS011;1228;51.022;6.764;2023-12-20T01:28:08;36.50;;;19.60;;
2434;SDS011;1228;51.022;6.764;2023-12-20T01:30:34;29.20;;;18.00;;
2434;SDS011;1228;51.022;6.764;2023-12-20T01:33:00;31.17;;;17.97;;
2434;SDS011;1228;51.022;6.764;2023-12-20T01:35:26;31.40;;;19.57;;
2434;SDS011;1228;51.022;6.764;2023-12-20T01:37:51;27.67;;;16.10;;
2434;SDS011;1228;51.022;6.764;2023-12-20T01:40:21;26.10;;;15.37;;
2434;SDS011;1228;51.022;6.764;2023-12-20T01:42:47;30.87;;;17.37;;
2434;SDS011;1228;51.022;6.764;2023-12-20T01:45:13;29.40;;;18.60;;
2434;SDS011;1228;51.022;6.764;2023-12-20T01:47:38;32.43;;;18.67;;
2434;SDS011;1228;51.022;6.764;2023-12-20T01:50:04;31.87;;;17.43;;
2434;SDS011;1228;51.022;6.764;2023-12-20T01:52:33;41.97;;;18.63;;
2434;SDS011;1228;51.022;6.764;2023-12-20T01:54:59;28.63;;;15.43;;
2434;SDS011;1228;51.022;6.764;2023-12-20T01:57:29;27.57;;;15.83;;
2434;SDS011;1228;51.022;6.764;2023-12-20T01:59:55;28.57;;;17.80;;
2434;SDS011;1228;51.022;6.764;2023-12-20T02:02:21;34.00;;;17.10;;
2434;SDS011;1228;51.022;6.764;2023-12-20T02:04:46;23.93;;;12.80;;
2434;SDS011;1228;51.022;6.764;2023-12-20T02:07:12;26.10;;;14.10;;
2434;SDS011;1228;51.022;6.764;2023-12-20T02:09:38;23.20;;;11.97;;
2434;SDS011;1228;51.022;6.764;2023-12-20T02:12:05;25.43;;;11.60;;
2434;SDS011;1228;51.022;6.764;2023-12-20T02:14:30;21.03;;;11.57;;
2434;SDS011;1228;51.022;6.764;2023-12-20T02:16:56;17.47;;;10.87;;
2434;SDS011;1228;51.022;6.764;2023-12-20T02:19:22;20.23;;;10.33;;
2434;SDS011;1228;51.022;6.764;2023-12-20T02:21:47;21.70;;;9.67;;
2434;SDS011;1228;51.022;6.764;2023-12-20T02:24:13;23.83;;;10.10;;
2434;SDS011;1228;51.022;6.764;2023-12-20T02:26:38;17.77;;;8.90;;
2434;SDS011;1228;51.022;6.764;2023-12-20T02:29:04;18.17;;;8.70;;
2434;SDS011;1228;51.022;6.764;2023-12-20T02:31:30;22.87;;;8.57;;
2434;SDS011;1228;51.022;6.764;2023-12-20T02:33:55;27.90;;;8.30;;
2434;SDS011;1228;51.022;6.764;2023-12-20T02:36:21;24.50;;;7.90;;
2434;SDS011;1228;51.022;6.764;2023-12-20T02:38:47;20.97;;;7.50;;
2434;SDS011;1228;51.022;6.764;2023-12-20T02:41:13;18.90;;;7.57;;
2434;SDS011;1228;51.022;6.764;2023-12-20T02:43:40;22.70;;;7.60;;
2434;SDS011;1228;51.022;6.764;2023-12-20T02:46:06;14.60;;;7.00;;
2434;SDS011;1228;51.022;6.764;2023-12-20T02:48:31;15.40;;;6.20;;
2434;SDS011;1228;51.022;6.764;2023-12-20T02:50:57;13.93;;;6.60;;
2434;SDS011;1228;51.022;6.764;2023-12-20T02:53:23;19.23;;;6.57;;
2434;SDS011;1228;51.022;6.764;2023-12-20T02:55:48;12.40;;;5.80;;
2434;SDS011;1228;51.022;6.764;2023-12-20T02:58:14;16.17;;;6.83;;
2434;SDS011;1228;51.022;6.764;2023-12-20T03:00:39;13.47;;;6.73;;
2434;SDS011;1228;51.022;6.764;2023-12-20T03:03:05;15.37;;;6.87;;
2434;SDS011;1228;51.022;6.764;2023-12-20T03:05:30;12.03;;;6.70;;
2434;SDS011;1228;51.022;6.764;2023-12-20T03:07:57;17.47;;;7.37;;
2434;SDS011;1228;51.022;6.764;2023-12-20T03:10:23;14.10;;;7.13;;
2434;SDS011;1228;51.022;6.764;2023-12-20T03:12:48;14.00;;;7.03;;
2434;SDS011;1228;51.022;6.764;2023-12-20T03:15:14;17.10;;;7.27;;
2434;SDS011;1228;51.022;6.764;2023-12-20T03:17:40;14.50;;;7.30;;
2434;SDS011;1228;51.022;6.764;2023-12-20T03:20:05;15.63;;;7.23;;
2434;SDS011;1228;51.022;6.764;2023-12-20T03:22:31;17.63;;;7.03;;
2434;SDS011;1228;51.022;6.764;2023-12-20T03:24:57;14.47;;;7.43;;
2434;SDS011;1228;51.022;6.764;2023-12-20T03:27:23;14.30;;;6.60;;
2434;SDS011;1228;51.022;6.764;2023-12-20T03:29:48;20.07;;;8.13;;
2434;SDS011;1228;51.022;6.764;2023-12-20T03:32:14;15.73;;;7.17;;
2434;SDS011;1228;51.022;6.764;2023-12-20T03:34:39;15.07;;;7.47;;
2434;SDS011;1228;51.022;6.764;2023-12-20T03:37:05;20.97;;;8.33;;
2434;SDS011;1228;51.022;6.764;2023-12-20T03:39:31;12.17;;;6.97;;
2434;SDS011;1228;51.022;6.764;2023-12-20T03:41:56;23.57;;;7.93;;
2434;SDS011;1228;51.022;6.764;2023-12-20T03:44:22;16.03;;;8.90;;
2434;SDS011;1228;51.022;6.764;2023-12-20T03:46:47;14.00;;;8.27;;
2434;SDS011;1228;51.022;6.764;2023-12-20T03:49:14;16.10;;;8.00;;
2434;SDS011;1228;51.022;6.764;2023-12-20T03:51:39;16.90;;;7.50;;
2434;SDS011;1228;51.022;6.764;2023-12-20T03:54:05;10.37;;;7.00;;
2434;SDS011;1228;51.022;6.764;2023-12-20T03:56:30;13.13;;;7.60;;
2434;SDS011;1228;51.022;6.764;2023-12-20T03:58:56;21.43;;;8.27;;
2434;SDS011;1228;51.022;6.764;2023-12-20T04:01:22;21.57;;;9.20;;
2434;SDS011;1228;51.022;6.764;2023-12-20T04:03:47;24.80;;;7.97;;
2434;SDS011;1228;51.022;6.764;2023-12-20T04:06:17;18.53;;;8.57;;
2434;SDS011;1228;51.022;6.764;2023-12-20T04:08:43;22.03;;;8.50;;
2434;SDS011;1228;51.022;6.764;2023-12-20T04:11:08;16.30;;;8.40;;
2434;SDS011;1228;51.022;6.764;2023-12-20T04:13:34;16.67;;;9.40;;
2434;SDS011;1228;51.022;6.764;2023-12-20T04:15:59;23.40;;;8.90;;
2434;SDS011;1228;51.022;6.764;2023-12-20T04:18:25;22.40;;;8.33;;
2434;SDS011;1228;51.022;6.764;2023-12-20T04:20:50;16.07;;;9.50;;
2434;SDS011;1228;51.022;6.764;2023-12-20T04:23:16;17.27;;;8.70;;
2434;SDS011;1228;51.022;6.764;2023-12-20T04:25:42;15.17;;;9.03;;
2434;SDS011;1228;51.022;6.764;2023-12-20T04:28:07;25.30;;;9.33;;
2434;SDS011;1228;51.022;6.764;2023-12-20T04:30:33;21.40;;;9.60;;
2434;SDS011;1228;51.022;6.764;2023-12-20T04:32:58;10.10;;;7.87;;
2434;SDS011;1228;51.022;6.764;2023-12-20T04:35:24;14.47;;;8.57;;
2434;SDS011;1228;51.022;6.764;2023-12-20T04:37:49;21.80;;;9.17;;
2434;SDS011;1228;51.022;6.764;2023-12-20T04:40:15;19.13;;;9.37;;
2434;SDS011;1228;51.022;6.764;2023-12-20T04:42:41;15.67;;;10.43;;
2434;SDS011;1228;51.022;6.764;2023-12-20T04:45:06;18.83;;;9.37;;
2434;SDS011;1228;51.022;6.764;2023-12-20T04:47:32;18.57;;;8.70;;
2434;SDS011;1228;51.022;6.764;2023-12-20T04:49:58;22.17;;;9.63;;
2434;SDS011;1228;51.022;6.764;2023-12-20T04:52:23;18.50;;;9.30;;
2434;SDS011;1228;51.022;6.764;2023-12-20T04:54:50;17.13;;;8.40;;
2434;SDS011;1228;51.022;6.764;2023-12-20T04:57:15;16.60;;;8.70;;
2434;SDS011;1228;51.022;6.764;2023-12-20T04:59:41;12.53;;;7.97;;
2434;SDS011;1228;51.022;6.764;2023-12-20T05:02:06;13.57;;;8.30;;
2434;SDS011;1228;51.022;6.764;2023-12-20T05:04:32;16.50;;;8.17;;
2434;SDS011;1228;51.022;6.764;2023-12-20T05:06:57;24.40;;;8.87;;
2434;SDS011;1228;51.022;6.764;2023-12-20T05:09:23;19.03;;;8.43;;
2434;SDS011;1228;51.022;6.764;2023-12-20T05:11:49;18.00;;;9.17;;
2434;SDS011;1228;51.022;6.764;2023-12-20T05:14:14;20.97;;;8.67;;
2434;SDS011;1228;51.022;6.764;2023-12-20T05:16:40;23.87;;;9.07;;
2434;SDS011;1228;51.022;6.764;2023-12-20T05:19:06;19.57;;;8.53;;
2434;SDS011;1228;51.022;6.764;2023-12-20T05:21:32;18.43;;;9.50;;
2434;SDS011;1228;51.022;6.764;2023-12-20T05:23:58;22.27;;;9.53;;
2434;SDS011;1228;51.022;6.764;2023-12-20T05:26:24;14.93;;;9.07;;
2434;SDS011;1228;51.022;6.764;2023-12-20T05:28:49;16.40;;;8.80;;
2434;SDS011;1228;51.022;6.764;2023-12-20T05:31:15;13.50;;;8.03;;
2434;SDS011;1228;51.022;6.764;2023-12-20T05:33:40;13.80;;;8.67;;
2434;SDS011;1228;51.022;6.764;2023-12-20T05:36:06;19.53;;;9.93;;
2434;SDS011;1228;51.022;6.764;2023-12-20T05:38:36;20.00;;;8.77;;
2434;SDS011;1228;51.022;6.764;2023-12-20T05:41:02;15.77;;;7.93;;
2434;SDS011;1228;51.022;6.764;2023-12-20T05:43:27;20.73;;;8.90;;
2434;SDS011;1228;51.022;6.764;2023-12-20T05:45:53;17.53;;;8.30;;
2434;SDS011;1228;51.022;6.764;2023-12-20T05:48:18;21.20;;;8.73;;
2434;SDS011;1228;51.022;6.764;2023-12-20T05:50:44;14.97;;;7.20;;
2434;SDS011;1228;51.022;6.764;2023-12-20T05:53:09;15.67;;;8.13;;
2434;SDS011;1228;51.022;6.764;2023-12-20T05:55:35;10.90;;;7.53;;
2434;SDS011;1228;51.022;6.764;2023-12-20T05:58:00;25.07;;;8.40;;
2434;SDS011;1228;51.022;6.764;2023-12-20T06:00:26;11.93;;;8.00;;
2434;SDS011;1228;51.022;6.764;2023-12-20T06:02:52;23.03;;;8.10;;
2434;SDS011;1228;51.022;6.764;2023-12-20T06:05:17;16.37;;;7.73;;
2434;SDS011;1228;51.022;6.764;2023-12-20T06:07:43;19.70;;;7.23;;
2434;SDS011;1228;51.022;6.764;2023-12-20T06:10:10;18.57;;;8.27;;
2434;SDS011;1228;51.022;6.764;2023-12-20T06:12:35;14.80;;;8.07;;
2434;SDS011;1228;51.022;6.764;2023-12-20T06:15:02;24.03;;;8.90;;
2434;SDS011;1228;51.022;6.764;2023-12-20T06:17:28;15.27;;;7.77;;
2434;SDS011;1228;51.022;6.764;2023-12-20T06:19:55;20.73;;;7.53;;
2434;SDS011;1228;51.022;6.764;2023-12-20T06:22:21;17.60;;;8.50;;
2434;SDS011;1228;51.022;6.764;2023-12-20T06:24:46;15.37;;;8.00;;
2434;SDS011;1228;51.022;6.764;2023-12-20T06:27:12;23.50;;;7.80;;
2434;SDS011;1228;51.022;6.764;2023-12-20T06:29:38;10.93;;;7.50;;
2434;SDS011;1228;51.022;6.764;2023-12-20T06:32:03;15.43;;;6.47;;
2434;SDS011;1228;51.022;6.764;2023-12-20T06:34:29;15.67;;;7.20;;
2434;SDS011;1228;51.022;6.764;2023-12-20T06:36:55;18.07;;;8.43;;
2434;SDS011;1228;51.022;6.764;2023-12-20T06:39:20;20.53;;;7.17;;
2434;SDS011;1228;51.022;6.764;2023-12-20T06:41:46;11.83;;;6.33;;
2434;SDS011;1228;51.022;6.764;2023-12-20T06:44:11;16.07;;;7.67;;
2434;SDS011;1228;51.022;6.764;2023-12-20T06:46:37;20.63;;;7.87;;
2434;SDS011;1228;51.022;6.764;2023-12-20T06:49:03;17.13;;;7.20;;
2434;SDS011;1228;51.022;6.764;2023-12-20T06:51:28;11.60;;;6.87;;
2434;SDS011;1228;51.022;6.764;2023-12-20T06:53:55;13.87;;;6.97;;
2434;SDS011;1228;51.022;6.764;2023-12-20T06:56:21;9.40;;;6.87;;
2434;SDS011;1228;51.022;6.764;2023-12-20T06:58:47;16.17;;;8.27;;
2434;SDS011;1228;51.022;6.764;2023-12-20T07:01:13;20.10;;;7.90;;
2434;SDS011;1228;51.022;6.764;2023-12-20T07:03:39;21.47;;;8.10;;
2434;SDS011;1228;51.022;6.764;2023-12-20T07:06:05;17.23;;;7.60;;
2434;SDS011;1228;51.022;6.764;2023-12-20T07:08:30;17.80;;;7.90;;
2434;SDS011;1228;51.022;6.764;2023-12-20T07:10:56;15.33;;;8.03;;
2434;SDS011;1228;51.022;6.764;2023-12-20T07:13:22;16.10;;;8.07;;
2434;SDS011;1228;51.022;6.764;2023-12-20T07:15:48;13.63;;;8.30;;
2434;SDS011;1228;51.022;6.764;2023-12-20T07:18:13;14.53;;;7.43;;
2434;SDS011;1228;51.022;6.764;2023-12-20T07:20:39;15.73;;;7.07;;
2434;SDS011;1228;51.022;6.764;2023-12-20T07:23:05;15.13;;;7.13;;
2434;SDS011;1228;51.022;6.764;2023-12-20T07:25:30;16.60;;;7.47;;
2434;SDS011;1228;51.022;6.764;2023-12-20T07:27:59;19.13;;;8.70;;
2434;SDS011;1228;51.022;6.764;2023-12-20T07:30:24;9.20;;;6.93;;
2434;SDS011;1228;51.022;6.764;2023-12-20T07:32:50;17.47;;;7.93;;
2434;SDS011;1228;51.022;6.764;2023-12-20T07:35:17;18.20;;;6.97;;
2434;SDS011;1228;51.022;6.764;2023-12-20T07:37:43;20.53;;;8.10;;
2434;SDS011;1228;51.022;6.764;2023-12-20T07:40:09;13.67;;;7.07;;
2434;SDS011;1228;51.022;6.764;2023-12-20T07:42:35;17.33;;;7.43;;
2434;SDS011;1228;51.022;6.764;2023-12-20T07:45:00;15.90;;;7.07;;
2434;SDS011;1228;51.022;6.764;2023-12-20T07:47:26;22.07;;;7.73;;
2434;SDS011;1228;51.022;6.764;2023-12-20T07:49:52;21.00;;;7.53;;
2434;SDS011;1228;51.022;6.764;2023-12-20T07:52:18;9.83;;;7.40;;
2434;SDS011;1228;51.022;6.764;2023-12-20T07:54:44;16.10;;;7.57;;
2434;SDS011;1228;51.022;6.764;2023-12-20T07:57:10;24.10;;;7.63;;
2434;SDS011;1228;51.022;6.764;2023-12-20T07:59:36;16.27;;;8.10;;
2434;SDS011;1228;51.022;6.764;2023-12-20T08:02:02;10.63;;;9.03;;
2434;SDS011;1228;51.022;6.764;2023-12-20T08:04:28;11.63;;;6.87;;
2434;SDS011;1228;51.022;6.764;2023-12-20T08:06:53;14.73;;;7.73;;
2434;SDS011;1228;51.022;6.764;2023-12-20T08:09:19;12.43;;;6.43;;
2434;SDS011;1228;51.022;6.764;2023-12-20T08:11:45;15.60;;;7.50;;
2434;SDS011;1228;51.022;6.764;2023-12-20T08:14:11;14.87;;;7.23;;
2434;SDS011;1228;51.022;6.764;2023-12-20T08:16:37;18.80;;;8.30;;
2434;SDS011;1228;51.022;6.764;2023-12-20T08:19:02;16.73;;;7.67;;
2434;SDS011;1228;51.022;6.764;2023-12-20T08:21:28;13.77;;;6.97;;
2434;SDS011;1228;51.022;6.764;2023-12-20T08:23:54;14.33;;;6.47;;
2434;SDS011;1228;51.022;6.764;2023-12-20T08:26:20;10.13;;;6.37;;
2434;SDS011;1228;51.022;6.764;2023-12-20T08:28:47;17.60;;;6.43;;
2434;SDS011;1228;51.022;6.764;2023-12-20T08:31:14;13.53;;;6.60;;
2434;SDS011;1228;51.022;6.764;2023-12-20T08:33:41;14.70;;;6.67;;
2434;SDS011;1228;51.022;6.764;2023-12-20T08:36:10;14.47;;;7.30;;
2434;SDS011;1228;51.022;6.764;2023-12-20T08:38:36;15.87;;;6.50;;
2434;SDS011;1228;51.022;6.764;2023-12-20T08:41:01;17.07;;;6.57;;
2434;SDS011;1228;51.022;6.764;2023-12-20T08:43:30;16.40;;;6.97;;
2434;SDS011;1228;51.022;6.764;2023-12-20T08:45:56;7.80;;;6.17;;
2434;SDS011;1228;51.022;6.764;2023-12-20T08:48:21;12.90;;;6.00;;
2434;SDS011;1228;51.022;6.764;2023-12-20T08:50:47;13.30;;;6.43;;
2434;SDS011;1228;51.022;6.764;2023-12-20T08:53:14;15.50;;;7.67;;
2434;SDS011;1228;51.022;6.764;2023-12-20T08:55:41;7.27;;;6.10;;
2434;SDS011;1228;51.022;6.764;2023-12-20T08:58:07;13.17;;;7.33;;
2434;SDS011;1228;51.022;6.764;2023-12-20T09:00:33;15.40;;;6.07;;
2434;SDS011;1228;51.022;6.764;2023-12-20T09:02:59;12.17;;;6.53;;
2434;SDS011;1228;51.022;6.764;2023-12-20T09:05:26;12.30;;;6.60;;
2434;SDS011;1228;51.022;6.764;2023-12-20T09:07:51;16.67;;;6.17;;
2434;SDS011;1228;51.022;6.764;2023-12-20T09:10:17;11.70;;;6.77;;
2434;SDS011;1228;51.022;6.764;2023-12-20T09:12:47;12.10;;;5.87;;
2434;SDS011;1228;51.022;6.764;2023-12-20T09:15:13;12.57;;;6.27;;
2434;SDS011;1228;51.022;6.764;2023-12-20T09:17:40;15.37;;;6.47;;
2434;SDS011;1228;51.022;6.764;2023-12-20T09:22:34;13.80;;;6.53;;
2434;SDS011;1228;51.022;6.764;2023-12-20T09:25:00;10.40;;;6.90;;
2434;SDS011;1228;51.022;6.764;2023-12-20T09:27:27;14.70;;;7.07;;
2434;SDS011;1228;51.022;6.764;2023-12-20T09:29:52;8.87;;;5.80;;
2434;SDS011;1228;51.022;6.764;2023-12-20T09:32:18;14.97;;;6.50;;
2434;SDS011;1228;51.022;6.764;2023-12-20T09:34:45;17.67;;;6.03;;
2434;SDS011;1228;51.022;6.764;2023-12-20T09:37:12;13.20;;;5.80;;
2434;SDS011;1228;51.022;6.764;2023-12-20T09:39:38;16.60;;;7.27;;
2434;SDS011;1228;51.022;6.764;2023-12-20T09:42:04;13.27;;;5.70;;
2434;SDS011;1228;51.022;6.764;2023-12-20T09:44:31;9.77;;;5.97;;
2434;SDS011;1228;51.022;6.764;2023-12-20T09:47:04;9.43;;;5.20;;
2434;SDS011;1228;51.022;6.764;2023-12-20T09:49:30;12.20;;;6.90;;
2434;SDS011;1228;51.022;6.764;2023-12-20T09:51:57;10.30;;;5.57;;
2434;SDS011;1228;51.022;6.764;2023-12-20T09:54:25;11.57;;;5.50;;
2434;SDS011;1228;51.022;6.764;2023-12-20T09:56:52;10.00;;;5.17;;
2434;SDS011;1228;51.022;6.764;2023-12-20T09:59:17;11.93;;;6.40;;
2434;SDS011;1228;51.022;6.764;2023-12-20T10:01:43;11.73;;;5.10;;
2434;SDS011;1228;51.022;6.764;2023-12-20T10:04:09;11.90;;;5.70;;
2434;SDS011;1228;51.022;6.764;2023-12-20T10:06:43;13.47;;;5.53;;
2434;SDS011;1228;51.022;6.764;2023-12-20T10:09:10;7.30;;;4.90;;
2434;SDS011;1228;51.022;6.764;2023-12-20T10:11:36;13.43;;;5.70;;
2434;SDS011;1228;51.022;6.764;2023-12-20T10:14:02;11.77;;;5.53;;
2434;SDS011;1228;51.022;6.764;2023-12-20T10:16:29;14.97;;;5.23;;
2434;SDS011;1228;51.022;6.764;2023-12-20T10:18:55;12.00;;;6.23;;
2434;SDS011;1228;51.022;6.764;2023-12-20T10:21:24;15.20;;;5.43;;
2434;SDS011;1228;51.022;6.764;2023-12-20T10:23:56;14.40;;;6.07;;
2434;SDS011;1228;51.022;6.764;2023-12-20T10:26:23;8.43;;;5.97;;
2434;SDS011;1228;51.022;6.764;2023-12-20T10:28:53;17.47;;;6.53;;
2434;SDS011;1228;51.022;6.764;2023-12-20T10:31:26;9.97;;;5.70;;
2434;SDS011;1228;51.022;6.764;2023-12-20T10:34:00;13.13;;;5.53;;
2434;SDS011;1228;51.022;6.764;2023-12-20T10:36:27;10.70;;;5.30;;
2434;SDS011;1228;51.022;6.764;2023-12-20T10:38:57;11.97;;;5.80;;
2434;SDS011;1228;51.022;6.764;2023-12-20T10:41:27;9.20;;;5.20;;
2434;SDS011;1228;51.022;6.764;2023-12-20T10:43:54;14.80;;;5.73;;
2434;SDS011;1228;51.022;6.764;2023-12-20T10:46:33;8.90;;;5.50;;
2434;SDS011;1228;51.022;6.764;2023-12-20T10:48:59;10.00;;;4.83;;
2434;SDS011;1228;51.022;6.764;2023-12-20T10:51:27;10.83;;;5.50;;
2434;SDS011;1228;51.022;6.764;2023-12-20T10:53:55;9.40;;;5.57;;
2434;SDS011;1228;51.022;6.764;2023-12-20T10:56:21;8.33;;;5.23;;
2434;SDS011;1228;51.022;6.764;2023-12-20T10:58:49;9.53;;;6.23;;
2434;SDS011;1228;51.022;6.764;2023-12-20T11:01:15;9.90;;;5.93;;
2434;SDS011;1228;51.022;6.764;2023-12-20T11:03:44;10.20;;;5.73;;
2434;SDS011;1228;51.022;6.764;2023-12-20T11:12:02;14.77;;;5.37;;
2434;SDS011;1228;51.022;6.764;2023-12-20T11:17:11;18.10;;;5.50;;
2434;SDS011;1228;51.022;6.764;2023-12-20T11:22:24;14.17;;;7.93;;
2434;SDS011;1228;51.022;6.764;2023-12-20T11:24:50;20.00;;;8.60;;
2434;SDS011;1228;51.022;6.764;2023-12-20T11:27:18;18.73;;;8.97;;
2434;SDS011;1228;51.022;6.764;2023-12-20T11:29:57;9.60;;;5.73;;
2434;SDS011;1228;51.022;6.764;2023-12-20T11:37:27;10.33;;;5.47;;
2434;SDS011;1228;51.022;6.764;2023-12-20T11:39:55;10.57;;;5.93;;
2434;SDS011;1228;51.022;6.764;2023-12-20T11:42:24;10.10;;;6.00;;
2434;SDS011;1228;51.022;6.764;2023-12-20T11:44:49;12.30;;;5.17;;
2434;SDS011;1228;51.022;6.764;2023-12-20T11:47:15;10.50;;;5.10;;
2434;SDS011;1228;51.022;6.764;2023-12-20T11:49:44;9.30;;;4.87;;
2434;SDS011;1228;51.022;6.764;2023-12-20T11:52:12;11.33;;;5.33;;
2434;SDS011;1228;51.022;6.764;2023-12-20T11:54:38;13.90;;;5.87;;
2434;SDS011;1228;51.022;6.764;2023-12-20T11:57:04;10.83;;;6.10;;
2434;SDS011;1228;51.022;6.764;2023-12-20T11:59:30;15.87;;;6.47;;
2434;SDS011;1228;51.022;6.764;2023-12-20T12:01:56;11.00;;;5.37;;
2434;SDS011;1228;51.022;6.764;2023-12-20T12:04:26;8.97;;;4.97;;
2434;SDS011;1228;51.022;6.764;2023-12-20T12:06:55;14.53;;;6.27;;
2434;SDS011;1228;51.022;6.764;2023-12-20T12:09:20;7.07;;;5.60;;
2434;SDS011;1228;51.022;6.764;2023-12-20T12:11:46;11.60;;;6.20;;
2434;SDS011;1228;51.022;6.764;2023-12-20T12:14:12;12.37;;;6.40;;
2434;SDS011;1228;51.022;6.764;2023-12-20T12:16:37;10.50;;;6.10;;
2434;SDS011;1228;51.022;6.764;2023-12-20T12:19:03;17.10;;;6.20;;
2434;SDS011;1228;51.022;6.764;2023-12-20T12:21:29;11.27;;;5.87;;
2434;SDS011;1228;51.022;6.764;2023-12-20T12:24:05;14.17;;;5.77;;
2434;SDS011;1228;51.022;6.764;2023-12-20T12:26:32;14.63;;;5.77;;
2434;SDS011;1228;51.022;6.764;2023-12-20T12:28:57;6.53;;;5.27;;
2434;SDS011;1228;51.022;6.764;2023-12-20T12:31:23;8.80;;;5.40;;
2434;SDS011;1228;51.022;6.764;2023-12-20T12:33:50;10.80;;;5.73;;
2434;SDS011;1228;51.022;6.764;2023-12-20T12:36:16;14.90;;;5.90;;
2434;SDS011;1228;51.022;6.764;2023-12-20T12:38:42;11.27;;;6.00;;
2434;SDS011;1228;51.022;6.764;2023-12-20T12:41:09;9.93;;;5.43;;
2434;SDS011;1228;51.022;6.764;2023-12-20T12:43:37;8.97;;;5.80;;
2434;SDS011;1228;51.022;6.764;2023-12-20T12:46:03;11.63;;;6.47;;
2434;SDS011;1228;51.022;6.764;2023-12-20T12:48:28;11.40;;;5.90;;
2434;SDS011;1228;51.022;6.764;2023-12-20T12:51:00;11.70;;;6.70;;
2434;SDS011;1228;51.022;6.764;2023-12-20T12:53:26;14.73;;;6.17;;
2434;SDS011;1228;51.022;6.764;2023-12-20T12:55:52;13.83;;;5.70;;
2434;SDS011;1228;51.022;6.764;2023-12-20T12:58:19;11.90;;;6.20;;
2434;SDS011;1228;51.022;6.764;2023-12-20T13:00:45;15.67;;;6.23;;
2434;SDS011;1228;51.022;6.764;2023-12-20T13:05:38;14.30;;;6.40;;
2434;SDS011;1228;51.022;6.764;2023-12-20T13:08:04;9.80;;;5.90;;
2434;SDS011;1228;51.022;6.764;2023-12-20T13:10:30;9.63;;;5.83;;
2434;SDS011;1228;51.022;6.764;2023-12-20T13:12:56;12.03;;;6.10;;
2434;SDS011;1228;51.022;6.764;2023-12-20T13:15:21;9.80;;;6.20;;
2434;SDS011;1228;51.022;6.764;2023-12-20T13:17:47;12.93;;;6.63;;
2434;SDS011;1228;51.022;6.764;2023-12-20T13:20:12;9.33;;;7.07;;
2434;SDS011;1228;51.022;6.764;2023-12-20T13:22:38;10.60;;;6.50;;
2434;SDS011;1228;51.022;6.764;2023-12-20T13:25:04;13.90;;;6.80;;
2434;SDS011;1228;51.022;6.764;2023-12-20T13:27:30;11.70;;;6.07;;
2434;SDS011;1228;51.022;6.764;2023-12-20T13:29:55;9.93;;;6.53;;
2434;SDS011;1228;51.022;6.764;2023-12-20T13:32:21;9.43;;;6.80;;
2434;SDS011;1228;51.022;6.764;2023-12-20T13:34:47;9.40;;;6.27;;
2434;SDS011;1228;51.022;6.764;2023-12-20T13:37:12;13.10;;;6.93;;
2434;SDS011;1228;51.022;6.764;2023-12-20T13:39:38;15.10;;;6.83;;
2434;SDS011;1228;51.022;6.764;2023-12-20T13:42:05;13.33;;;6.70;;
2434;SDS011;1228;51.022;6.764;2023-12-20T13:44:30;13.77;;;7.10;;
2434;SDS011;1228;51.022;6.764;2023-12-20T13:46:56;15.57;;;6.40;;
2434;SDS011;1228;51.022;6.764;2023-12-20T13:49:21;12.03;;;5.97;;
2434;SDS011;1228;51.022;6.764;2023-12-20T13:51:50;10.77;;;5.63;;
2434;SDS011;1228;51.022;6.764;2023-12-20T13:54:16;14.73;;;5.67;;
2434;SDS011;1228;51.022;6.764;2023-12-20T13:56:45;11.93;;;5.90;;
2434;SDS011;1228;51.022;6.764;2023-12-20T13:59:11;11.13;;;6.70;;
2434;SDS011;1228;51.022;6.764;2023-12-20T14:01:37;11.07;;;6.33;;
2434;SDS011;1228;51.022;6.764;2023-12-20T14:04:03;11.83;;;5.97;;
2434;SDS011;1228;51.022;6.764;2023-12-20T14:06:29;11.00;;;6.53;;
2434;SDS011;1228;51.022;6.764;2023-12-20T14:08:54;8.87;;;5.70;;
2434;SDS011;1228;51.022;6.764;2023-12-20T14:11:20;11.37;;;5.77;;
2434;SDS011;1228;51.022;6.764;2023-12-20T14:13:46;9.80;;;6.03;;
2434;SDS011;1228;51.022;6.764;2023-12-20T14:16:11;8.00;;;6.43;;
2434;SDS011;1228;51.022;6.764;2023-12-20T14:18:37;11.53;;;6.07;;
2434;SDS011;1228;51.022;6.764;2023-12-20T14:21:05;10.53;;;7.20;;
2434;SDS011;1228;51.022;6.764;2023-12-20T14:23:31;10.17;;;5.90;;
2434;SDS011;1228;51.022;6.764;2023-12-20T14:25:58;9.17;;;6.17;;
2434;SDS011;1228;51.022;6.764;2023-12-20T14:28:24;10.30;;;6.70;;
2434;SDS011;1228;51.022;6.764;2023-12-20T14:30:50;10.17;;;6.17;;
2434;SDS011;1228;51.022;6.764;2023-12-20T14:33:16;8.27;;;6.07;;
2434;SDS011;1228;51.022;6.764;2023-12-20T14:35:42;13.27;;;7.93;;
2434;SDS011;1228;51.022;6.764;2023-12-20T14:38:09;12.40;;;5.90;;
2434;SDS011;1228;51.022;6.764;2023-12-20T14:40:35;10.33;;;6.57;;
2434;SDS011;1228;51.022;6.764;2023-12-20T14:43:00;8.03;;;5.57;;
2434;SDS011;1228;51.022;6.764;2023-12-20T14:45:29;7.10;;;6.40;;
2434;SDS011;1228;51.022;6.764;2023-12-20T14:47:54;13.13;;;6.37;;
2434;SDS011;1228;51.022;6.764;2023-12-20T14:50:20;11.20;;;5.60;;
2434;SDS011;1228;51.022;6.764;2023-12-20T14:52:46;10.57;;;6.47;;
2434;SDS011;1228;51.022;6.764;2023-12-20T14:55:12;11.20;;;6.00;;
2434;SDS011;1228;51.022;6.764;2023-12-20T14:57:38;9.93;;;5.83;;
2434;SDS011;1228;51.022;6.764;2023-12-20T15:00:04;11.30;;;5.90;;
2434;SDS011;1228;51.022;6.764;2023-12-20T15:02:30;11.33;;;5.57;;
2434;SDS011;1228;51.022;6.764;2023-12-20T15:04:56;12.73;;;5.93;;
2434;SDS011;1228;51.022;6.764;2023-12-20T15:07:22;13.27;;;6.53;;
2434;SDS011;1228;51.022;6.764;2023-12-20T15:09:47;10.47;;;5.90;;
2434;SDS011;1228;51.022;6.764;2023-12-20T15:12:14;11.37;;;6.53;;
2434;SDS011;1228;51.022;6.764;2023-12-20T15:14:40;7.43;;;5.70;;